createdAt,value
2022-08-24T00:01:24.214Z,101769.53
2022-08-24T00:03:55.516Z,101767.84
2022-08-24T00:06:24.783Z,101763.59
2022-08-24T00:08:53.380Z,101769.34
2022-08-24T00:11:20.184Z,101768.28
2022-08-24T00:13:47.041Z,101759.59
2022-08-24T00:16:14.588Z,101763.41
2022-08-24T00:18:41.244Z,101769.81
2022-08-24T00:21:08.200Z,101776.44
2022-08-24T00:23:36.166Z,101770.03
2022-08-24T00:26:03.371Z,101768.31
2022-08-24T00:28:30.276Z,101777.06
2022-08-24T00:30:56.810Z,101775.59
2022-08-24T00:33:23.487Z,101777.97
2022-08-24T00:35:50.284Z,101767.78
2022-08-24T00:38:16.970Z,101771.44
2022-08-24T00:40:46.610Z,101776.56
2022-08-24T00:43:13.444Z,101777.41
2022-08-24T00:45:50.440Z,101773.97
2022-08-24T00:48:26.640Z,101772.06
2022-08-24T00:51:00.265Z,101773.75
2022-08-24T00:53:33.698Z,101778.22
2022-08-24T00:56:06.991Z,101773.53
2022-08-24T00:58:39.950Z,101771.41
2022-08-24T01:01:08.707Z,101768.38
2022-08-24T01:03:37.692Z,101758.56
2022-08-24T01:06:05.134Z,101766.44
2022-08-24T01:08:32.076Z,101764.50
2022-08-24T01:11:05.261Z,101762.13
2022-08-24T01:13:33.008Z,101760.03
2022-08-24T01:16:04.357Z,101760.03
2022-08-24T01:18:49.850Z,101761.31
2022-08-24T01:21:16.406Z,101762.47
2022-08-24T01:23:44.629Z,101768.44
2022-08-24T01:26:16.087Z,101777.63
2022-08-24T01:28:45.102Z,101777.00
2022-08-24T01:31:12.066Z,101784.03
2022-08-24T01:33:38.771Z,101784.03
2022-08-24T01:36:18.785Z,101780.03
2022-08-24T01:38:45.949Z,101786.19
2022-08-24T01:41:12.465Z,101790.63
2022-08-24T01:43:39.245Z,101786.78
2022-08-24T01:46:06.183Z,101795.03
2022-08-24T01:48:32.884Z,101788.41
2022-08-24T01:50:59.613Z,101797.97
2022-08-24T01:53:26.361Z,101794.31
2022-08-24T01:55:52.918Z,101803.22
2022-08-24T01:58:19.960Z,101807.28
2022-08-24T02:00:46.764Z,101797.91
2022-08-24T02:03:13.316Z,101795.31
2022-08-24T02:05:39.915Z,101795.13
2022-08-24T02:08:06.577Z,101789.38
2022-08-24T02:10:33.365Z,101793.84
2022-08-24T02:13:00.003Z,101794.13
2022-08-24T02:15:30.927Z,101794.94
2022-08-24T02:17:58.341Z,101788.38
2022-08-24T02:20:25.105Z,101788.41
2022-08-24T02:22:52.503Z,101795.00
2022-08-24T02:25:19.372Z,101791.84
2022-08-24T02:27:46.130Z,101788.41
2022-08-24T02:30:12.891Z,101791.19
2022-08-24T02:32:41.855Z,101795.66
2022-08-24T02:35:09.224Z,101788.81
2022-08-24T02:37:36.043Z,101800.50
2022-08-24T02:40:12.472Z,101801.59
2022-08-24T02:42:39.157Z,101800.13
2022-08-24T02:45:06.063Z,101799.69
2022-08-24T02:47:32.822Z,101793.94
2022-08-24T02:50:07.395Z,101798.25
2022-08-24T02:52:35.829Z,101796.97
2022-08-24T02:55:02.469Z,101799.91
2022-08-24T02:57:29.011Z,101807.38
2022-08-24T02:59:55.650Z,101803.31
2022-08-24T03:02:22.359Z,101798.00
2022-08-24T03:04:49.533Z,101796.94
2022-08-24T03:07:16.412Z,101799.72
2022-08-24T03:09:42.920Z,101806.47
2022-08-24T03:12:09.516Z,101799.72
2022-08-24T03:14:36.053Z,101803.78
2022-08-24T03:17:02.652Z,101798.69
2022-08-24T03:19:30.123Z,101801.88
2022-08-24T03:21:57.345Z,101803.81
2022-08-24T03:24:24.020Z,101809.13
2022-08-24T03:26:50.858Z,101803.84
2022-08-24T03:29:17.931Z,101807.88
2022-08-24T03:31:44.800Z,101808.94
2022-08-24T03:34:13.446Z,101803.00
2022-08-24T03:36:41.222Z,101810.69
2022-08-24T03:39:07.978Z,101809.81
2022-08-24T03:41:36.650Z,101810.63
2022-08-24T03:44:03.698Z,101807.63
2022-08-24T03:46:32.432Z,101809.91
2022-08-24T03:48:59.352Z,101799.69
2022-08-24T03:51:28.749Z,101798.34
2022-08-24T03:53:56.883Z,101796.63
2022-08-24T03:56:23.444Z,101807.69
2022-08-24T03:58:52.296Z,101797.44
2022-08-24T04:01:19.372Z,101797.63
2022-08-24T04:03:47.730Z,101793.41
2022-08-24T04:06:16.175Z,101790.44
2022-08-24T04:08:43.236Z,101797.44
2022-08-24T04:11:15.514Z,101798.53
2022-08-24T04:13:42.766Z,101798.97
2022-08-24T04:16:12.888Z,101798.53
2022-08-24T04:18:40.775Z,101805.34
2022-08-24T04:21:16.312Z,101806.41
2022-08-24T04:23:47.554Z,101806.63
2022-08-24T04:26:15.555Z,101802.16
2022-08-24T04:28:42.480Z,101802.16
2022-08-24T04:31:09.425Z,101812.59
2022-08-24T04:33:36.598Z,101815.16
2022-08-24T04:36:08.791Z,101809.41
2022-08-24T04:38:36.052Z,101806.22
2022-08-24T04:41:07.795Z,101808.97
2022-08-24T04:43:43.126Z,101807.44
2022-08-24T04:46:09.837Z,101805.34
2022-08-24T04:48:36.414Z,101807.06
2022-08-24T04:51:04.794Z,101815.75
2022-08-24T04:53:32.005Z,101814.53
2022-08-24T04:55:59.336Z,101810.22
2022-08-24T04:58:26.399Z,101807.88
2022-08-24T05:00:53.324Z,101815.31
2022-08-24T05:03:19.910Z,101819.59
2022-08-24T05:05:49.718Z,101823.66
2022-08-24T05:08:18.482Z,101819.00
2022-08-24T05:10:47.505Z,101821.78
2022-08-24T05:13:15.315Z,101827.97
2022-08-24T05:15:47.007Z,101830.28
2022-08-24T05:18:15.337Z,101829.88
2022-08-24T05:20:44.142Z,101827.75
2022-08-24T05:23:11.801Z,101834.34
2022-08-24T05:25:39.546Z,101833.50
2022-08-24T05:28:06.810Z,101833.94
2022-08-24T05:30:33.537Z,101834.59
2022-08-24T05:33:00.457Z,101837.94
2022-08-24T05:35:27.575Z,101834.97
2022-08-24T05:37:54.131Z,101838.59
2022-08-24T05:40:20.973Z,101843.69
2022-08-24T05:42:48.539Z,101842.84
2022-08-24T05:45:15.305Z,101840.88
2022-08-24T05:47:42.003Z,101839.56
2022-08-24T05:50:08.898Z,101837.00
2022-08-24T05:52:35.871Z,101838.47
2022-08-24T05:55:02.572Z,101834.84
2022-08-24T05:57:32.844Z,101841.94
2022-08-24T05:59:59.368Z,101843.22
2022-08-24T06:02:26.016Z,101835.47
2022-08-24T06:04:52.842Z,101844.00
2022-08-24T06:07:19.397Z,101833.97
2022-08-24T06:09:45.912Z,101832.66
2022-08-24T06:12:12.574Z,101826.88
2022-08-24T06:14:39.274Z,101824.94
2022-08-24T06:17:07.763Z,101824.19
2022-08-24T06:19:36.374Z,101828.44
2022-08-24T06:22:03.411Z,101822.41
2022-08-24T06:24:53.422Z,101826.56
2022-08-24T06:27:22.838Z,101830.34
2022-08-24T06:30:01.629Z,101829.50
2022-08-24T06:32:28.574Z,101823.50
2022-08-24T06:34:56.772Z,101828.34
2022-08-24T06:37:26.774Z,101829.66
2022-08-24T06:39:57.284Z,101825.44
2022-08-24T06:42:29.378Z,101823.66
2022-08-24T06:44:55.964Z,101830.78
2022-08-24T06:47:22.844Z,101825.81
2022-08-24T06:49:49.386Z,101821.59
2022-08-24T06:52:16.288Z,101818.41
2022-08-24T06:54:43.082Z,101822.13
2022-08-24T06:57:09.794Z,101820.78
2022-08-24T06:59:36.441Z,101818.75
2022-08-24T07:02:03.107Z,101816.03
2022-08-24T07:04:29.794Z,101818.50
2022-08-24T07:06:56.523Z,101827.44
2022-08-24T07:09:24.995Z,101823.09
2022-08-24T07:11:52.584Z,101822.16
2022-08-24T07:14:19.664Z,101827.53
2022-08-24T07:16:47.119Z,101827.38
2022-08-24T07:19:13.866Z,101828.09
2022-08-24T07:21:40.679Z,101824.13
2022-08-24T07:24:07.236Z,101830.03
2022-08-24T07:26:34.008Z,101831.59
2022-08-24T07:29:06.537Z,101835.50
2022-08-24T07:31:37.762Z,101835.59
2022-08-24T07:34:06.477Z,101847.91
2022-08-24T07:36:33.460Z,101844.47
2022-08-24T07:39:00.936Z,101837.28
2022-08-24T07:44:15.684Z,101849.16
2022-08-24T07:46:42.934Z,101851.63
2022-08-24T07:49:20.318Z,101847.28
2022-08-24T07:51:57.807Z,101841.84
2022-08-24T07:54:24.474Z,101851.28
2022-08-24T07:56:51.127Z,101835.44
2022-08-24T07:59:17.860Z,101853.00
2022-08-24T08:01:44.899Z,101849.84
2022-08-24T08:04:11.756Z,101851.66
2022-08-24T08:06:38.315Z,101846.94
2022-08-24T08:09:05.867Z,101843.56
2022-08-24T08:11:35.195Z,101845.72
2022-08-24T08:14:01.760Z,101840.19
2022-08-24T08:16:28.597Z,101839.81
2022-08-24T08:19:11.212Z,101838.13
2022-08-24T08:22:04.192Z,101848.09
2022-08-24T08:24:30.796Z,101841.31
2022-08-24T08:26:57.968Z,101860.91
2022-08-24T08:29:25.313Z,101854.63
2022-08-24T08:31:52.376Z,101843.16
2022-08-24T08:34:19.127Z,101840.72
2022-08-24T08:36:45.968Z,101835.56
2022-08-24T08:39:15.726Z,101832.66
2022-08-24T08:41:58.196Z,101843.44
2022-08-24T08:44:34.282Z,101833.78
2022-08-24T08:47:23.748Z,101833.75
2022-08-24T08:49:56.535Z,101835.81
2022-08-24T08:52:52.175Z,101836.13
2022-08-24T08:55:42.726Z,101839.16
2022-08-24T08:58:40.004Z,101833.84
2022-08-24T09:01:25.134Z,101834.38
2022-08-24T09:04:20.996Z,101843.38
2022-08-24T09:07:04.044Z,101840.59
2022-08-24T09:09:35.149Z,101837.38
2022-08-24T09:12:13.174Z,101838.94
2022-08-24T09:15:17.240Z,101845.19
2022-08-24T09:18:34.358Z,101853.28
2022-08-24T09:21:19.442Z,101846.56
2022-08-24T09:24:06.084Z,101845.59
2022-08-24T09:26:47.975Z,101844.31
2022-08-24T09:29:38.723Z,101841.31
2022-08-24T09:32:27.577Z,101847.84
2022-08-24T09:35:11.338Z,101845.03
2022-08-24T09:38:00.111Z,101845.34
2022-08-24T09:40:54.239Z,101848.84
2022-08-24T09:43:29.966Z,101853.53
2022-08-24T09:46:17.854Z,101853.97
2022-08-24T09:49:02.495Z,101843.00
2022-08-24T09:51:48.807Z,101848.50
2022-08-24T09:54:34.167Z,101839.97
2022-08-24T09:58:00.053Z,101842.38
2022-08-24T10:00:31.718Z,101844.34
2022-08-24T10:03:11.600Z,101841.78
2022-08-24T10:05:54.606Z,101835.28
2022-08-24T10:08:34.115Z,101840.19
2022-08-24T10:11:16.109Z,101840.41
2022-08-24T10:14:11.987Z,101833.44
2022-08-24T10:16:45.579Z,101826.34
2022-08-24T10:19:22.368Z,101831.78
2022-08-24T10:21:48.818Z,101832.59
2022-08-24T10:24:30.878Z,101824.25
2022-08-24T10:27:24.247Z,101833.22
2022-08-24T10:29:56.809Z,101827.81
2022-08-24T10:32:38.577Z,101832.53
2022-08-24T10:35:15.080Z,101823.28
2022-08-24T10:37:47.574Z,101827.06
2022-08-24T10:40:20.357Z,101827.88
2022-08-24T10:43:15.971Z,101829.44
2022-08-24T10:46:11.917Z,101829.63
2022-08-24T10:48:52.667Z,101828.47
2022-08-24T10:51:34.658Z,101821.78
2022-08-24T10:54:01.406Z,101821.59
2022-08-24T10:56:50.973Z,101824.41
2022-08-24T10:59:35.797Z,101815.25
2022-08-24T11:02:13.140Z,101821.88
2022-08-24T11:04:40.364Z,101822.91
2022-08-24T11:07:19.733Z,101807.28
2022-08-24T11:09:54.051Z,101820.75
2022-08-24T11:12:46.788Z,101809.28
2022-08-24T11:15:19.849Z,101805.13
2022-08-24T11:17:56.618Z,101807.63
2022-08-24T11:20:41.874Z,101793.84
2022-08-24T11:23:17.629Z,101797.78
2022-08-24T11:26:01.921Z,101797.16
2022-08-24T11:28:34.246Z,101794.47
2022-08-24T11:31:01.243Z,101799.06
2022-08-24T11:33:34.345Z,101798.47
2022-08-24T11:36:02.285Z,101793.69
2022-08-24T11:38:34.925Z,101792.63
2022-08-24T11:41:15.295Z,101793.41
2022-08-24T11:43:42.074Z,101791.69
2022-08-24T11:46:15.996Z,101795.56
2022-08-24T11:49:14.008Z,101794.13
2022-08-24T11:51:54.516Z,101794.50
2022-08-24T11:54:37.135Z,101801.31
2022-08-24T11:57:09.502Z,101798.75
2022-08-24T11:59:45.415Z,101790.38
2022-08-24T12:02:18.815Z,101782.75
2022-08-24T12:04:51.282Z,101786.03
2022-08-24T12:07:20.776Z,101785.56
2022-08-24T12:09:53.173Z,101790.94
2022-08-24T12:12:30.280Z,101783.06
2022-08-24T12:15:06.066Z,101779.13
2022-08-24T12:17:47.894Z,101785.59
2022-08-24T12:20:44.036Z,101783.19
2022-08-24T12:23:37.925Z,101775.88
2022-08-24T12:26:26.247Z,101777.69
2022-08-24T12:29:01.503Z,101778.06
2022-08-24T12:31:56.197Z,101785.63
2022-08-24T12:34:36.718Z,101782.44
2022-08-24T12:37:22.976Z,101787.06
2022-08-24T12:40:07.335Z,101780.94
2022-08-24T12:42:52.521Z,101785.13
2022-08-24T12:45:21.108Z,101792.25
2022-08-24T12:47:55.072Z,101792.31
2022-08-24T12:50:38.529Z,101788.06
2022-08-24T12:53:17.097Z,101789.34
2022-08-24T12:55:58.193Z,101791.22
2022-08-24T12:58:54.027Z,101790.41
2022-08-24T13:01:25.598Z,101786.94
2022-08-24T13:04:09.919Z,101778.81
2022-08-24T13:06:41.405Z,101788.22
2022-08-24T13:09:28.186Z,101780.59
2022-08-24T13:11:58.709Z,101785.84
2022-08-24T13:14:29.585Z,101779.03
2022-08-24T13:16:56.433Z,101778.78
2022-08-24T13:19:22.888Z,101778.88
2022-08-24T13:22:02.576Z,101771.41
2022-08-24T13:24:29.354Z,101768.72
2022-08-24T13:27:18.939Z,101769.44
2022-08-24T13:29:51.446Z,101775.09
2022-08-24T13:32:49.538Z,101766.09
2022-08-24T13:35:41.060Z,101768.53
2022-08-24T13:38:35.540Z,101767.84
2022-08-24T13:41:08.180Z,101774.81
2022-08-24T13:43:37.761Z,101767.38
2022-08-24T13:46:16.607Z,101762.56
2022-08-24T13:49:12.469Z,101764.44
2022-08-24T13:51:41.967Z,101768.97
2022-08-24T13:54:30.101Z,101767.63
2022-08-24T13:57:06.192Z,101760.81
2022-08-24T13:59:47.470Z,101756.59
2022-08-24T14:02:16.920Z,101756.34
2022-08-24T14:05:22.409Z,101752.81
2022-08-24T14:08:14.830Z,101752.09
2022-08-24T14:11:11.770Z,101739.94
2022-08-24T14:14:04.283Z,101747.84
2022-08-24T14:17:19.696Z,101740.13
2022-08-24T14:20:08.872Z,101747.84
2022-08-24T14:22:53.831Z,101752.88
2022-08-24T14:25:23.353Z,101738.84
2022-08-24T14:27:59.163Z,101736.28
2022-08-24T14:30:25.644Z,101746.53
2022-08-24T14:33:00.763Z,101740.38
2022-08-24T14:35:42.521Z,101741.19
2022-08-24T14:38:18.143Z,101737.19
2022-08-24T14:40:53.657Z,101742.28
2022-08-24T14:43:41.955Z,101732.41
2022-08-24T14:46:33.669Z,101728.56
2022-08-24T14:49:16.368Z,101726.84
2022-08-24T14:51:42.839Z,101725.75
2022-08-24T14:55:01.884Z,101725.31
2022-08-24T14:57:56.693Z,101721.97
2022-08-24T15:00:41.827Z,101720.09
2022-08-24T15:03:26.986Z,101717.28
2022-08-24T15:06:25.680Z,101715.94
2022-08-24T15:08:53.389Z,101721.91
2022-08-24T15:11:26.565Z,101716.91
2022-08-24T15:14:12.043Z,101718.03
2022-08-24T15:16:53.602Z,101714.84
2022-08-24T15:19:22.984Z,101717.56
2022-08-24T15:21:56.930Z,101713.41
2022-08-24T15:27:38.812Z,101714.72
2022-08-24T15:30:08.350Z,101707.47
2022-08-24T15:35:34.851Z,101707.16
2022-08-24T15:38:30.402Z,101709.00
2022-08-24T15:41:24.677Z,101706.34
2022-08-24T15:43:59.847Z,101713.22
2022-08-24T15:46:32.353Z,101710.53
2022-08-24T15:49:07.378Z,101703.06
2022-08-24T15:51:40.566Z,101716.63
2022-08-24T15:54:19.657Z,101709.72
2022-08-24T15:57:18.440Z,101711.06
2022-08-24T15:59:50.029Z,101712.66
2022-08-24T16:02:29.854Z,101707.44
2022-08-24T16:05:14.131Z,101701.81
2022-08-24T16:08:03.234Z,101707.78
2022-08-24T16:10:34.706Z,101712.78
2022-08-24T16:13:19.973Z,101705.78
2022-08-24T16:16:03.103Z,101702.56
2022-08-24T16:18:48.168Z,101695.94
2022-08-24T16:21:23.674Z,101695.25
2022-08-24T16:24:00.873Z,101689.78
2022-08-24T16:26:37.613Z,101703.03
2022-08-24T16:29:04.692Z,101693.13
2022-08-24T16:31:40.837Z,101687.72
2022-08-24T16:34:29.816Z,101690.88
2022-08-24T16:36:57.463Z,101692.03
2022-08-24T16:39:24.514Z,101681.25
2022-08-24T16:41:55.781Z,101688.13
2022-08-24T16:44:26.229Z,101691.22
2022-08-24T16:46:53.190Z,101686.69
2022-08-24T16:49:20.537Z,101688.38
2022-08-24T16:51:47.052Z,101685.59
2022-08-24T16:54:13.824Z,101682.53
2022-08-24T16:56:42.849Z,101682.88
2022-08-24T16:59:19.010Z,101679.81
2022-08-24T17:01:49.727Z,101688.53
2022-08-24T17:04:16.690Z,101673.69
2022-08-24T17:06:44.795Z,101663.03
2022-08-24T17:09:11.579Z,101670.59
2022-08-24T17:11:38.961Z,101661.91
2022-08-24T17:14:07.005Z,101665.59
2022-08-24T17:16:33.614Z,101660.25
2022-08-24T17:19:01.083Z,101670.06
2022-08-24T17:21:28.036Z,101667.00
2022-08-24T17:23:54.947Z,101680.47
2022-08-24T17:26:21.972Z,101678.50
2022-08-24T17:28:50.659Z,101674.28
2022-08-24T17:31:17.424Z,101679.59
2022-08-24T17:33:44.288Z,101686.06
2022-08-24T17:36:15.284Z,101686.63
2022-08-24T17:38:50.455Z,101684.94
2022-08-24T17:41:21.269Z,101679.34
2022-08-24T17:43:47.810Z,101690.00
2022-08-24T17:46:15.035Z,101686.09
2022-08-24T17:48:47.340Z,101692.22
2022-08-24T17:51:14.304Z,101691.13
2022-08-24T17:53:41.276Z,101693.91
2022-08-24T17:56:08.587Z,101699.22
2022-08-24T17:58:58.127Z,101701.75
2022-08-24T18:01:25.354Z,101697.50
2022-08-24T18:03:51.952Z,101691.03
2022-08-24T18:06:19.782Z,101688.19
2022-08-24T18:08:47.139Z,101694.91
2022-08-24T18:11:14.581Z,101694.22
2022-08-24T18:13:42.157Z,101691.44
2022-08-24T18:16:16.953Z,101692.81
2022-08-24T18:18:43.383Z,101699.53
2022-08-24T18:21:09.944Z,101695.63
2022-08-24T18:23:37.956Z,101698.66
2022-08-24T18:26:10.277Z,101705.81
2022-08-24T18:28:37.134Z,101708.63
2022-08-24T18:31:03.700Z,101709.56
2022-08-24T18:33:30.480Z,101709.53
2022-08-24T18:35:57.001Z,101713.16
2022-08-24T18:38:26.785Z,101714.00
2022-08-24T18:40:53.440Z,101716.31
2022-08-24T18:43:22.765Z,101720.38
2022-08-24T18:45:49.970Z,101724.03
2022-08-24T18:48:16.561Z,101730.84
2022-08-24T18:50:43.116Z,101721.91
2022-08-24T18:53:10.024Z,101722.44
2022-08-24T18:55:38.977Z,101736.03
2022-08-24T18:58:06.836Z,101741.22
2022-08-24T19:00:33.590Z,101735.50
2022-08-24T19:03:03.188Z,101738.59
2022-08-24T19:05:30.183Z,101735.13
2022-08-24T19:07:56.703Z,101742.25
2022-08-24T19:10:26.366Z,101748.16
2022-08-24T19:12:56.945Z,101743.63
2022-08-24T19:15:29.133Z,101748.25
2022-08-24T19:18:03.376Z,101748.44
2022-08-24T19:20:32.271Z,101755.88
2022-08-24T19:23:06.176Z,101757.16
2022-08-24T19:25:33.207Z,101760.13
2022-08-24T19:27:59.790Z,101748.88
2022-08-24T19:30:28.022Z,101755.06
2022-08-24T19:32:56.191Z,101757.44
2022-08-24T19:35:22.920Z,101760.16
2022-08-24T19:37:52.385Z,101761.44
2022-08-24T19:40:21.000Z,101762.34
2022-08-24T19:42:50.814Z,101760.31
2022-08-24T19:45:39.151Z,101759.78
2022-08-24T19:48:06.057Z,101759.97
2022-08-24T19:50:35.648Z,101767.16
2022-08-24T19:53:03.851Z,101764.88
2022-08-24T19:55:31.141Z,101770.56
2022-08-24T19:58:08.912Z,101765.22
2022-08-24T20:00:41.378Z,101767.34
2022-08-24T20:03:13.981Z,101767.16
2022-08-24T20:05:41.068Z,101770.88
2022-08-24T20:08:08.776Z,101770.78
2022-08-24T20:10:35.403Z,101774.31
2022-08-24T20:13:02.094Z,101767.31
2022-08-24T20:15:29.377Z,101770.94
2022-08-24T20:17:57.197Z,101780.47
2022-08-24T20:20:24.871Z,101774.28
2022-08-24T20:22:51.494Z,101780.47
2022-08-24T20:25:18.605Z,101775.50
2022-08-24T20:27:45.950Z,101770.47
2022-08-24T20:30:13.824Z,101771.56
2022-08-24T20:32:40.418Z,101787.09
2022-08-24T20:35:07.312Z,101781.50
2022-08-24T20:37:34.442Z,101780.31
2022-08-24T20:40:01.793Z,101784.44
2022-08-24T20:42:31.592Z,101780.44
2022-08-24T20:44:59.628Z,101777.44
2022-08-24T20:47:26.519Z,101772.34
2022-08-24T20:49:53.264Z,101778.41
2022-08-24T20:52:20.390Z,101786.88
2022-08-24T20:54:46.944Z,101792.72
2022-08-24T20:57:18.151Z,101778.88
2022-08-24T20:59:45.352Z,101784.38
2022-08-24T21:02:12.140Z,101789.69
2022-08-24T21:04:38.786Z,101786.66
2022-08-24T21:07:05.475Z,101786.59
2022-08-24T21:09:32.039Z,101791.53
2022-08-24T21:11:58.567Z,101783.56
2022-08-24T21:14:25.190Z,101781.81
2022-08-24T21:16:51.979Z,101788.13
2022-08-24T21:19:18.525Z,101783.06
2022-08-24T21:21:46.910Z,101788.50
2022-08-24T21:24:13.976Z,101786.72
2022-08-24T21:26:40.578Z,101784.06
2022-08-24T21:29:09.218Z,101789.72
2022-08-24T21:31:36.291Z,101789.97
2022-08-24T21:34:21.822Z,101793.34
2022-08-24T21:36:49.050Z,101785.97
2022-08-24T21:39:15.787Z,101791.41
2022-08-24T21:41:42.330Z,101792.84
2022-08-24T21:44:09.007Z,101790.56
2022-08-24T21:46:38.117Z,101800.00
2022-08-24T21:49:05.365Z,101796.47
2022-08-24T21:51:32.031Z,101806.41
2022-08-24T21:53:59.922Z,101791.03
2022-08-24T21:56:29.235Z,101801.19
2022-08-24T21:58:55.774Z,101793.56
2022-08-24T22:01:22.455Z,101797.41
2022-08-24T22:03:49.072Z,101797.66
2022-08-24T22:06:16.090Z,101801.75
2022-08-24T22:08:43.670Z,101799.28
2022-08-24T22:11:15.737Z,101805.47
2022-08-24T22:13:42.498Z,101801.59
2022-08-24T22:16:10.252Z,101797.38
2022-08-24T22:18:36.966Z,101801.72
2022-08-24T22:21:12.205Z,101799.41
2022-08-24T22:23:39.897Z,101799.41
2022-08-24T22:26:06.515Z,101802.44
2022-08-24T22:28:34.867Z,101797.59
2022-08-24T22:31:01.677Z,101790.78
2022-08-24T22:33:29.272Z,101797.69
2022-08-24T22:35:56.472Z,101793.22
2022-08-24T22:38:22.990Z,101802.63
2022-08-24T22:40:55.947Z,101798.41
2022-08-24T22:43:42.877Z,101799.69
2022-08-24T22:46:09.471Z,101792.69
2022-08-24T22:48:36.976Z,101786.97
2022-08-24T22:51:08.003Z,101792.69
2022-08-24T22:53:34.530Z,101798.50
2022-08-24T22:56:01.348Z,101801.28
2022-08-24T22:58:28.233Z,101790.63
2022-08-24T23:00:54.796Z,101789.16
2022-08-24T23:03:24.719Z,101793.88
2022-08-24T23:05:51.251Z,101796.50
2022-08-24T23:08:17.751Z,101789.72
2022-08-24T23:10:44.780Z,101792.75
2022-08-24T23:13:11.491Z,101792.75
2022-08-24T23:15:38.178Z,101791.06
2022-08-24T23:18:24.739Z,101788.41
2022-08-24T23:20:51.438Z,101788.03
2022-08-24T23:23:17.981Z,101788.13
2022-08-24T23:25:44.495Z,101781.94
2022-08-24T23:28:11.332Z,101783.03
2022-08-24T23:30:37.833Z,101785.44
2022-08-24T23:33:05.378Z,101780.13
2022-08-24T23:35:31.991Z,101780.13
2022-08-24T23:37:58.738Z,101777.19
2022-08-24T23:40:25.398Z,101776.78
2022-08-24T23:42:52.003Z,101773.38
2022-08-24T23:45:18.701Z,101772.75
2022-08-24T23:47:57.077Z,101777.25
2022-08-24T23:50:24.156Z,101774.72
2022-08-24T23:52:50.771Z,101772.63
2022-08-24T23:55:20.942Z,101769.63
2022-08-24T23:57:48.595Z,101775.16
